Time;durP1;ratioP1;P1;durP2;ratioP2;P2;SDS_P1;SDS_P2;PMS_P1;PMS_P2;Temp;Humidity;BMP_temperature;BMP_pressure;BME280_temperature;BME280_humidity;BME280_pressure;Samples;Min_cycle;Max_cycle;Signal;HPM_P1;HPM_P2
2021/06/24 00:02:04;;;;;;;15.35;13.80;;;22.80;76.50;;;;;;5036005;28;20184;-89
2021/06/24 00:04:29;;;;;;;15.10;13.80;;;22.70;77.50;;;;;;5036176;28;20173;-89
2021/06/24 00:06:55;;;;;;;14.80;13.57;;;22.80;77.20;;;;;;5020303;28;20165;-89
2021/06/24 00:09:21;;;;;;;14.57;13.43;;;22.70;77.10;;;;;;5036383;28;20663;-89
2021/06/24 00:11:46;;;;;;;15.45;14.02;;;22.80;76.60;;;;;;5035190;28;20189;-89
2021/06/24 00:14:12;;;;;;;14.80;13.60;;;22.90;76.90;;;;;;5046471;28;20188;-90
2021/06/24 00:16:38;;;;;;;14.85;13.65;;;22.90;77.50;;;;;;5035658;28;20185;-89
2021/06/24 00:19:04;;;;;;;14.30;13.07;;;22.80;78.00;;;;;;5054323;28;20201;-90
2021/06/24 00:21:30;;;;;;;15.75;14.35;;;22.70;79.40;;;;;;5052657;28;20195;-89
2021/06/24 00:23:55;;;;;;;13.38;12.02;;;22.60;79.70;;;;;;5035536;28;20173;-89
2021/06/24 00:26:21;;;;;;;14.10;12.70;;;22.60;79.50;;;;;;5016770;28;20185;-89
2021/06/24 00:28:47;;;;;;;14.75;13.45;;;22.60;79.10;;;;;;5016900;28;20671;-90
2021/06/24 00:31:12;;;;;;;14.55;13.38;;;22.60;78.90;;;;;;5016615;28;20238;-89
2021/06/24 00:33:38;;;;;;;15.07;13.88;;;22.70;78.70;;;;;;5034780;28;20375;-89
2021/06/24 00:36:04;;;;;;;14.50;13.13;;;22.70;78.70;;;;;;5017072;28;20177;-89
2021/06/24 00:38:30;;;;;;;14.82;13.63;;;22.50;79.60;;;;;;5017636;28;20292;-89
2021/06/24 00:40:56;;;;;;;14.52;13.50;;;22.50;79.00;;;;;;5037010;28;20201;-89
2021/06/24 00:43:23;;;;;;;15.32;14.05;;;22.60;79.10;;;;;;5036814;28;20639;-89
2021/06/24 00:45:49;;;;;;;15.07;13.80;;;22.70;78.70;;;;;;5037650;28;20177;-89
2021/06/24 00:48:15;;;;;;;15.20;13.88;;;22.70;81.60;;;;;;5037350;28;20217;-90
2021/06/24 00:50:43;;;;;;;16.95;15.32;;;22.60;82.00;;;;;;5037156;28;20173;-90
2021/06/24 00:53:10;;;;;;;16.55;15.05;;;22.60;80.70;;;;;;5019339;28;20192;-90
2021/06/24 00:55:41;;;;;;;18.85;17.08;;;22.30;82.10;;;;;;5036951;28;20180;-90
2021/06/24 00:58:10;;;;;;;17.85;16.20;;;22.00;82.60;;;;;;5041273;28;20207;-90
2021/06/24 01:00:37;;;;;;;18.88;17.20;;;21.80;83.50;;;;;;5049478;28;20201;-89
2021/06/24 01:03:03;;;;;;;19.40;17.70;;;21.40;86.10;;;;;;5018429;28;20192;-90
2021/06/24 01:05:29;;;;;;;17.80;16.00;;;21.10;87.90;;;;;;5034901;28;20184;-90
2021/06/24 01:07:55;;;;;;;11.52;10.43;;;21.10;88.80;;;;;;5035043;28;20226;-90
2021/06/24 01:10:20;;;;;;;12.50;10.15;;;20.80;88.40;;;;;;5019469;28;20232;-91
2021/06/24 01:12:46;;;;;;;8.82;7.78;;;20.60;89.40;;;;;;5020512;28;20247;-90
2021/06/24 01:15:12;;;;;;;6.90;6.30;;;20.10;91.20;;;;;;5038601;28;20189;-91
2021/06/24 01:17:38;;;;;;;7.28;6.57;;;19.80;93.00;;;;;;5038450;28;20207;-91
2021/06/24 01:20:05;;;;;;;6.45;5.57;;;19.60;94.40;;;;;;5020446;28;20291;-92
2021/06/24 01:22:30;;;;;;;6.20;5.40;;;19.50;95.50;;;;;;5039845;28;20614;-91
2021/06/24 01:24:56;;;;;;;5.32;4.93;;;19.30;96.70;;;;;;5038471;28;20219;-92
2021/06/24 01:27:22;;;;;;;6.07;3.50;;;19.30;96.70;;;;;;5041912;28;20234;-93
2021/06/24 01:29:47;;;;;;;4.78;4.28;;;19.20;93.20;;;;;;5015976;28;20194;-93
2021/06/24 01:32:13;;;;;;;5.13;4.15;;;19.10;93.10;;;;;;5043896;28;20188;-92
2021/06/24 01:34:41;;;;;;;5.82;3.63;;;19.10;94.80;;;;;;4995599;28;20202;-92
2021/06/24 01:37:07;;;;;;;4.90;4.35;;;19.00;94.70;;;;;;5028330;28;20182;-93
2021/06/24 01:39:33;;;;;;;3.97;3.40;;;19.10;95.40;;;;;;5044242;28;20200;-92
2021/06/24 01:42:00;;;;;;;4.50;3.72;;;19.20;94.70;;;;;;5043579;28;20180;-92
2021/06/24 01:44:34;;;;;;;4.00;3.60;;;19.40;94.70;;;;;;5009486;28;20181;-93
2021/06/24 01:47:01;;;;;;;3.60;3.30;;;19.60;93.70;;;;;;5043698;28;20195;-92
2021/06/24 01:49:27;;;;;;;3.20;3.00;;;19.70;92.30;;;;;;5009008;28;20205;-92
2021/06/24 01:51:53;;;;;;;3.20;2.90;;;19.80;92.70;;;;;;5033104;28;20195;-92
2021/06/24 01:54:20;;;;;;;3.20;3.00;;;19.90;92.70;;;;;;5025359;28;20854;-92
2021/06/24 01:56:46;;;;;;;3.33;3.03;;;19.80;92.90;;;;;;5025425;28;20177;-92
2021/06/24 01:59:12;;;;;;;3.80;2.95;;;19.90;92.90;;;;;;5043229;28;20207;-92
2021/06/24 02:01:38;;;;;;;4.05;3.75;;;20.10;91.70;;;;;;5042917;28;20177;-92
2021/06/24 02:04:04;;;;;;;5.43;3.30;;;20.20;91.00;;;;;;5042679;28;20175;-92
2021/06/24 02:06:29;;;;;;;2.90;2.70;;;20.30;89.70;;;;;;5042435;28;20184;-92
2021/06/24 02:08:55;;;;;;;3.40;3.10;;;20.20;88.30;;;;;;5025722;28;20208;-93
2021/06/24 02:11:21;;;;;;;3.10;2.90;;;20.00;90.00;;;;;;5025715;28;20226;-92
2021/06/24 02:13:47;;;;;;;4.53;3.40;;;20.10;90.10;;;;;;5026091;28;20267;-92
2021/06/24 02:16:12;;;;;;;3.33;3.13;;;20.20;90.00;;;;;;5043339;28;20185;-92
2021/06/24 02:18:39;;;;;;;2.80;2.60;;;20.20;89.20;;;;;;5024694;28;20802;-91
2021/06/24 02:21:05;;;;;;;3.72;3.42;;;20.20;89.30;;;;;;5042423;28;20229;-91
2021/06/24 02:23:30;;;;;;;3.38;3.08;;;20.20;89.80;;;;;;5043167;28;20187;-92
2021/06/24 02:25:56;;;;;;;3.70;3.40;;;20.20;89.80;;;;;;5033796;28;20583;-91
2021/06/24 02:28:22;;;;;;;5.38;3.30;;;20.20;89.10;;;;;;5016096;28;20225;-92
2021/06/24 02:30:48;;;;;;;3.85;3.42;;;20.30;88.70;;;;;;5042360;28;20273;-92
2021/06/24 02:33:15;;;;;;;4.63;3.45;;;20.20;88.20;;;;;;5042551;28;20188;-92
2021/06/24 02:35:46;;;;;;;3.53;3.22;;;20.30;87.70;;;;;;5031825;28;20186;-92
2021/06/24 02:38:12;;;;;;;3.53;3.10;;;20.40;87.20;;;;;;5058896;28;20189;-92
2021/06/24 02:40:38;;;;;;;3.38;2.95;;;20.40;87.30;;;;;;5051389;28;20252;-92
2021/06/24 02:43:04;;;;;;;3.85;3.03;;;20.50;86.80;;;;;;5041530;28;20179;-91
2021/06/24 02:45:31;;;;;;;3.47;3.03;;;20.50;86.40;;;;;;5045460;28;20274;-92
2021/06/24 02:47:56;;;;;;;5.07;3.33;;;20.50;87.40;;;;;;5039396;28;20626;-92
2021/06/24 02:50:25;;;;;;;2.95;2.72;;;20.40;86.80;;;;;;5021225;28;20176;-92
2021/06/24 02:52:50;;;;;;;3.17;2.97;;;20.40;86.40;;;;;;5005617;28;20396;-92
2021/06/24 02:55:16;;;;;;;3.38;3.05;;;20.40;86.80;;;;;;5004714;28;20805;-93
2021/06/24 02:57:43;;;;;;;3.33;3.08;;;20.30;87.00;;;;;;5020472;28;20295;-92
2021/06/24 03:00:10;;;;;;;3.17;2.80;;;20.30;86.90;;;;;;5004517;28;20587;-92
2021/06/24 03:02:36;;;;;;;3.50;3.20;;;20.30;86.40;;;;;;5038409;28;20190;-92
2021/06/24 03:05:04;;;;;;;3.08;2.88;;;20.20;87.10;;;;;;5021191;28;20192;-92
2021/06/24 03:07:30;;;;;;;3.63;2.83;;;20.20;87.80;;;;;;5038174;28;20207;-92
2021/06/24 03:09:56;;;;;;;3.63;3.28;;;20.00;87.10;;;;;;5021211;28;20189;-92
2021/06/24 03:12:21;;;;;;;3.20;2.90;;;19.70;89.30;;;;;;5038964;28;20187;-92
2021/06/24 03:14:47;;;;;;;4.22;3.17;;;19.50;90.60;;;;;;5020009;28;20184;-92
2021/06/24 03:17:13;;;;;;;3.13;2.83;;;19.20;90.90;;;;;;5037434;28;20181;-92
2021/06/24 03:19:38;;;;;;;3.00;2.80;;;19.00;92.70;;;;;;5037622;28;20215;-92
2021/06/24 03:22:05;;;;;;;2.80;2.60;;;18.80;93.10;;;;;;5019129;28;20246;-91
2021/06/24 03:24:31;;;;;;;2.97;2.70;;;18.80;93.80;;;;;;5020715;28;20752;-92
2021/06/24 03:26:56;;;;;;;3.05;2.47;;;18.70;93.70;;;;;;5038645;28;20184;-92
2021/06/24 03:29:22;;;;;;;2.50;2.30;;;18.80;94.10;;;;;;5038123;28;20218;-91
2021/06/24 03:31:48;;;;;;;2.78;2.50;;;18.80;92.90;;;;;;5036720;28;20182;-92
2021/06/24 03:34:14;;;;;;;2.33;2.13;;;18.80;93.40;;;;;;5036517;28;20200;-91
2021/06/24 03:36:39;;;;;;;2.50;2.30;;;18.90;92.90;;;;;;5019954;28;20204;-92
2021/06/24 03:39:05;;;;;;;2.80;2.60;;;18.90;92.10;;;;;;5036797;28;20207;-91
2021/06/24 03:41:31;;;;;;;3.60;2.67;;;19.00;93.10;;;;;;5039750;28;20250;-92
2021/06/24 03:43:58;;;;;;;3.00;2.70;;;19.00;92.40;;;;;;5021043;28;20184;-91
2021/06/24 03:46:23;;;;;;;3.03;2.80;;;19.00;91.50;;;;;;5037172;28;20185;-92
2021/06/24 03:48:52;;;;;;;3.28;2.97;;;19.10;91.90;;;;;;5036130;28;20219;-92
2021/06/24 03:51:18;;;;;;;2.70;2.50;;;19.10;91.00;;;;;;5037845;28;20188;-92
2021/06/24 03:53:44;;;;;;;2.55;2.40;;;19.20;88.10;;;;;;5049421;28;20236;-92
2021/06/24 03:56:10;;;;;;;4.28;2.70;;;19.20;88.70;;;;;;5006226;28;20224;-92
2021/06/24 03:58:36;;;;;;;2.70;2.50;;;19.30;86.50;;;;;;5005032;28;20237;-92
2021/06/24 04:01:02;;;;;;;3.13;2.92;;;19.40;88.60;;;;;;5039868;28;20239;-93
2021/06/24 04:03:28;;;;;;;2.00;1.90;;;19.60;88.50;;;;;;5016265;28;20212;-91
2021/06/24 04:05:53;;;;;;;2.30;2.00;;;19.50;85.30;;;;;;5034289;28;20224;-91
2021/06/24 04:08:19;;;;;;;2.50;2.30;;;19.50;86.20;;;;;;5015423;28;20206;-91
2021/06/24 04:10:45;;;;;;;2.35;2.25;;;19.60;85.70;;;;;;5033562;28;20722;-92
2021/06/24 04:13:11;;;;;;;2.30;2.10;;;19.80;85.90;;;;;;5032872;28;20213;-92
2021/06/24 04:15:37;;;;;;;2.70;2.20;;;19.80;84.20;;;;;;5015525;28;20205;-92
2021/06/24 04:18:04;;;;;;;2.10;2.00;;;19.80;85.80;;;;;;5033241;28;20707;-91
2021/06/24 04:20:31;;;;;;;2.10;2.00;;;20.00;84.20;;;;;;5036047;28;20227;-91
2021/06/24 04:22:58;;;;;;;2.00;1.90;;;20.10;83.60;;;;;;5037393;28;20192;-90
2021/06/24 04:25:24;;;;;;;2.20;2.10;;;20.00;81.30;;;;;;5037602;28;20189;-90
2021/06/24 04:27:50;;;;;;;2.30;2.20;;;20.10;84.60;;;;;;5013228;28;20241;-90
2021/06/24 04:30:17;;;;;;;1.98;1.88;;;20.10;84.70;;;;;;5041646;28;20192;-91
2021/06/24 04:32:43;;;;;;;2.53;2.33;;;20.10;83.80;;;;;;5028126;28;20270;-91
2021/06/24 04:35:10;;;;;;;2.80;2.60;;;20.10;84.20;;;;;;5035782;28;20193;-91
2021/06/24 04:37:36;;;;;;;3.88;2.33;;;20.10;85.00;;;;;;5038149;28;20223;-91
2021/06/24 04:40:03;;;;;;;2.53;2.33;;;19.90;85.70;;;;;;5024200;28;20207;-90
2021/06/24 04:42:29;;;;;;;2.55;2.30;;;19.70;87.70;;;;;;5018681;28;20838;-91
2021/06/24 04:44:55;;;;;;;2.55;2.28;;;19.60;88.00;;;;;;4999144;28;20189;-91
2021/06/24 04:47:21;;;;;;;5.07;2.80;;;19.60;88.40;;;;;;5031144;28;20185;-91
2021/06/24 04:49:46;;;;;;;5.22;2.72;;;19.60;88.90;;;;;;5036338;28;20192;-91
2021/06/24 04:52:12;;;;;;;3.67;2.65;;;19.70;88.90;;;;;;5018913;28;20250;-91
2021/06/24 04:54:37;;;;;;;2.72;2.50;;;19.80;88.10;;;;;;5016009;28;20270;-91
2021/06/24 04:57:04;;;;;;;2.60;2.40;;;19.80;87.60;;;;;;5020530;28;20215;-91
2021/06/24 04:59:29;;;;;;;2.70;2.50;;;19.80;86.90;;;;;;5027532;23;20256;-92
2021/06/24 05:01:55;;;;;;;2.80;2.60;;;19.70;87.50;;;;;;5047242;28;20200;-90
2021/06/24 05:04:21;;;;;;;2.83;2.60;;;19.60;88.10;;;;;;5054558;28;20236;-91
2021/06/24 05:06:52;;;;;;;2.70;2.50;;;19.30;89.60;;;;;;5054052;28;20244;-90
2021/06/24 05:09:24;;;;;;;2.78;2.58;;;19.20;90.40;;;;;;5035603;28;20292;-90
2021/06/24 05:11:50;;;;;;;2.80;2.60;;;19.00;91.50;;;;;;5035129;28;20169;-90
2021/06/24 05:14:15;;;;;;;2.90;2.70;;;19.00;93.00;;;;;;5035204;28;20441;-90
2021/06/24 05:16:41;;;;;;;2.50;2.28;;;19.10;91.60;;;;;;5017793;28;20444;-90
2021/06/24 05:19:08;;;;;;;2.95;2.50;;;19.10;90.00;;;;;;5037232;28;20287;-90
2021/06/24 05:21:33;;;;;;;2.60;2.40;;;19.10;90.30;;;;;;5047058;28;20683;-91
2021/06/24 05:23:59;;;;;;;2.80;2.10;;;19.20;89.40;;;;;;5015525;28;20212;-90
2021/06/24 05:26:25;;;;;;;3.15;2.33;;;19.30;89.30;;;;;;5015960;28;20186;-90
2021/06/24 05:28:50;;;;;;;3.55;2.60;;;19.40;88.10;;;;;;5015043;28;20194;-90
2021/06/24 05:31:16;;;;;;;3.17;2.20;;;19.50;87.90;;;;;;5016575;28;20647;-90
2021/06/24 05:33:42;;;;;;;2.50;2.20;;;19.50;87.90;;;;;;5018086;28;20265;-90
2021/06/24 05:36:08;;;;;;;1.95;1.85;;;19.60;88.40;;;;;;5027555;28;20181;-91
2021/06/24 05:38:33;;;;;;;2.72;2.10;;;19.70;86.40;;;;;;5032893;28;20204;-91
2021/06/24 05:40:59;;;;;;;3.78;2.25;;;19.60;86.10;;;;;;5017423;28;20218;-90
2021/06/24 05:43:25;;;;;;;2.03;1.90;;;19.50;87.60;;;;;;4999562;28;20197;-90
2021/06/24 05:45:50;;;;;;;2.72;2.22;;;19.60;86.90;;;;;;4997874;28;20182;-91
2021/06/24 05:48:16;;;;;;;2.22;2.03;;;19.70;86.70;;;;;;5009101;28;20212;-91
2021/06/24 05:50:42;;;;;;;3.47;2.83;;;19.70;86.50;;;;;;4998368;28;20181;-91
2021/06/24 05:53:09;;;;;;;2.75;2.10;;;19.70;86.10;;;;;;5000744;28;20202;-91
2021/06/24 05:55:53;;;;;;;2.42;2.28;;;19.70;86.60;;;;;;5014412;28;20661;-91
2021/06/24 05:58:23;;;;;;;3.63;2.30;;;19.70;86.50;;;;;;5013061;28;20579;-91
2021/06/24 06:00:52;;;;;;;2.75;2.55;;;19.70;87.40;;;;;;5014431;28;20217;-91
2021/06/24 06:03:19;;;;;;;2.60;2.40;;;19.90;86.90;;;;;;4996675;28;20244;-91
2021/06/24 06:05:45;;;;;;;3.42;2.70;;;20.00;84.30;;;;;;5013784;28;20228;-91
2021/06/24 06:08:11;;;;;;;2.60;2.40;;;20.00;85.70;;;;;;4998734;28;20692;-91
2021/06/24 06:10:39;;;;;;;2.47;2.33;;;20.20;85.30;;;;;;5023173;28;20242;-91
2021/06/24 06:13:06;;;;;;;4.40;1.98;;;20.20;84.80;;;;;;5013483;28;20178;-92
2021/06/24 06:15:36;;;;;;;3.28;2.03;;;20.20;83.90;;;;;;4993995;28;20441;-91
2021/06/24 06:18:12;;;;;;;2.30;2.17;;;20.20;83.80;;;;;;4994364;28;20232;-91
2021/06/24 06:20:39;;;;;;;2.55;2.15;;;20.20;82.70;;;;;;5012643;28;20204;-92
2021/06/24 06:23:04;;;;;;;2.88;2.20;;;20.30;83.40;;;;;;5011475;28;20181;-92
2021/06/24 06:25:30;;;;;;;2.40;2.20;;;20.30;81.80;;;;;;5013393;28;20193;-91
2021/06/24 06:27:55;;;;;;;2.13;2.03;;;20.40;80.90;;;;;;5017792;28;20560;-91
2021/06/24 06:30:22;;;;;;;2.53;2.33;;;20.30;81.50;;;;;;5021281;28;20669;-90
2021/06/24 06:32:48;;;;;;;3.33;2.50;;;20.50;82.40;;;;;;5018261;28;20188;-91
2021/06/24 06:35:13;;;;;;;2.10;2.00;;;20.60;80.30;;;;;;5013411;28;20186;-91
2021/06/24 06:37:39;;;;;;;2.40;2.20;;;20.80;78.40;;;;;;5012382;28;20217;-91
2021/06/24 06:40:06;;;;;;;2.42;2.15;;;21.00;78.10;;;;;;5011278;28;20239;-91
2021/06/24 06:42:31;;;;;;;2.70;2.50;;;21.00;80.00;;;;;;5014462;28;20654;-90
2021/06/24 06:44:57;;;;;;;3.10;2.40;;;21.10;79.00;;;;;;5033114;28;20185;-93
2021/06/24 06:47:23;;;;;;;3.15;2.22;;;21.10;78.40;;;;;;5018794;28;20188;-92
2021/06/24 06:49:48;;;;;;;2.95;2.45;;;21.00;78.60;;;;;;5036934;28;20211;-91
2021/06/24 06:52:14;;;;;;;2.50;2.30;;;21.00;78.30;;;;;;5019134;28;20181;-93
2021/06/24 06:54:40;;;;;;;5.07;2.60;;;20.90;80.00;;;;;;5036462;28;20223;-92
2021/06/24 06:57:05;;;;;;;4.15;2.85;;;20.90;80.00;;;;;;5054304;28;20249;-93
2021/06/24 06:59:31;;;;;;;2.72;2.53;;;20.80;78.90;;;;;;5021972;28;20217;-90
2021/06/24 07:01:57;;;;;;;3.45;2.80;;;20.80;78.90;;;;;;5011329;28;20237;-90
2021/06/24 07:04:22;;;;;;;2.60;2.40;;;20.60;79.60;;;;;;5011942;28;20680;-89
2021/06/24 07:06:48;;;;;;;2.97;2.67;;;20.60;80.90;;;;;;4995231;28;20697;-90
2021/06/24 07:09:14;;;;;;;2.88;2.67;;;20.80;79.90;;;;;;4995104;28;20205;-90
2021/06/24 07:11:41;;;;;;;3.40;3.10;;;21.00;79.80;;;;;;5020350;28;20198;-90
2021/06/24 07:14:06;;;;;;;6.80;4.47;;;21.20;79.50;;;;;;5032566;28;20188;-90
2021/06/24 07:16:32;;;;;;;5.32;4.18;;;21.20;79.80;;;;;;5013440;28;20189;-90
2021/06/24 07:18:58;;;;;;;4.97;4.57;;;21.40;80.00;;;;;;4994275;28;20209;-91
2021/06/24 07:21:23;;;;;;;9.20;5.30;;;21.60;80.60;;;;;;5013277;28;20234;-91
2021/06/24 07:23:49;;;;;;;5.80;5.30;;;21.60;80.70;;;;;;5011580;28;20174;-92
2021/06/24 07:26:14;;;;;;;6.03;5.50;;;21.40;81.80;;;;;;5028375;28;20190;-90
2021/06/24 07:28:40;;;;;;;8.88;5.70;;;21.50;81.10;;;;;;5016161;28;20200;-91
2021/06/24 07:31:06;;;;;;;6.07;5.57;;;21.40;80.50;;;;;;5016768;28;20228;-90
2021/06/24 07:33:33;;;;;;;6.47;5.95;;;21.30;80.20;;;;;;5019906;28;20702;-90
2021/06/24 07:35:58;;;;;;;5.38;4.88;;;21.20;80.10;;;;;;4998381;28;20242;-91
2021/06/24 07:38:24;;;;;;;5.32;4.93;;;21.20;81.00;;;;;;5015685;28;20699;-91
2021/06/24 07:40:49;;;;;;;5.20;4.72;;;21.20;80.90;;;;;;4999177;28;20212;-91
2021/06/24 07:43:15;;;;;;;6.00;5.50;;;21.20;81.20;;;;;;5019897;28;20213;-91
2021/06/24 07:45:41;;;;;;;5.38;4.97;;;21.30;81.80;;;;;;5019200;28;20185;-90
2021/06/24 07:48:07;;;;;;;6.53;6.03;;;21.40;81.30;;;;;;5018313;28;20229;-90
2021/06/24 07:50:33;;;;;;;8.32;7.68;;;21.50;80.30;;;;;;5021302;28;20195;-90
2021/06/24 07:53:00;;;;;;;7.28;6.68;;;21.40;81.80;;;;;;5023065;28;20185;-91
2021/06/24 07:55:33;;;;;;;7.93;7.25;;;21.40;80.40;;;;;;5025736;28;20193;-91
2021/06/24 07:58:03;;;;;;;9.40;7.35;;;21.50;79.80;;;;;;5025964;28;20235;-91
2021/06/24 08:00:29;;;;;;;8.32;7.63;;;21.40;79.00;;;;;;5011337;28;20202;-91
2021/06/24 08:02:55;;;;;;;7.80;7.20;;;21.80;78.20;;;;;;5021207;28;20201;-91
2021/06/24 08:05:20;;;;;;;7.75;7.13;;;21.90;78.20;;;;;;5020693;28;20196;-91
2021/06/24 08:07:48;;;;;;;9.77;8.98;;;22.00;77.70;;;;;;5025429;28;20241;-92
2021/06/24 08:10:14;;;;;;;9.43;8.63;;;22.20;77.80;;;;;;5028449;28;20168;-90
2021/06/24 08:12:42;;;;;;;10.30;9.50;;;22.20;76.30;;;;;;5034460;28;20182;-90
2021/06/24 08:15:09;;;;;;;9.60;8.90;;;22.10;76.90;;;;;;5027037;28;20188;-90
2021/06/24 08:17:35;;;;;;;10.40;9.55;;;22.40;75.90;;;;;;5005318;28;20210;-90
2021/06/24 08:20:01;;;;;;;11.85;10.95;;;22.60;76.10;;;;;;5012295;28;20297;-90
2021/06/24 08:22:28;;;;;;;10.75;9.77;;;22.50;78.10;;;;;;5023128;28;20186;-90
2021/06/24 08:24:53;;;;;;;11.43;10.43;;;22.70;76.70;;;;;;5005319;28;20198;-91
2021/06/24 08:27:19;;;;;;;11.50;10.60;;;22.80;76.40;;;;;;4991853;28;20238;-90
2021/06/24 08:29:45;;;;;;;12.43;11.35;;;22.70;75.60;;;;;;4997767;28;20308;-90
2021/06/24 08:32:10;;;;;;;11.85;10.95;;;22.70;77.10;;;;;;5010086;28;20201;-90
2021/06/24 08:34:36;;;;;;;11.05;10.13;;;22.90;75.30;;;;;;5022587;28;20216;-91
2021/06/24 08:37:02;;;;;;;11.15;10.25;;;22.60;74.30;;;;;;5009598;28;20676;-91
2021/06/24 08:39:28;;;;;;;11.55;10.65;;;23.00;73.70;;;;;;5013182;28;20491;-91
2021/06/24 08:41:54;;;;;;;11.80;10.80;;;23.30;73.70;;;;;;5056630;23;20225;-88
2021/06/24 08:44:20;;;;;;;12.65;11.50;;;23.40;71.70;;;;;;4985025;28;20206;-88
2021/06/24 08:46:51;;;;;;;12.27;11.27;;;23.40;72.90;;;;;;4985767;28;20201;-88
2021/06/24 08:49:23;;;;;;;11.63;10.73;;;23.50;72.00;;;;;;4977136;28;20273;-87
2021/06/24 08:51:49;;;;;;;11.25;10.35;;;23.50;70.10;;;;;;4996443;28;20206;-88
2021/06/24 08:54:14;;;;;;;10.93;10.02;;;23.50;72.40;;;;;;5009765;28;20229;-87
2021/06/24 08:56:40;;;;;;;11.93;11.02;;;23.50;71.80;;;;;;5016987;28;20177;-88
2021/06/24 08:59:08;;;;;;;11.95;10.95;;;23.50;70.10;;;;;;5004775;28;20284;-88
2021/06/24 09:01:56;;;;;;;11.55;10.50;;;23.70;71.40;;;;;;5003375;28;20257;-88
2021/06/24 09:04:30;;;;;;;11.27;10.40;;;23.50;71.30;;;;;;5010775;28;20166;-87
2021/06/24 09:07:22;;;;;;;11.07;10.25;;;23.20;72.50;;;;;;4995833;28;20626;-88
2021/06/24 09:09:56;;;;;;;10.95;10.05;;;23.40;72.30;;;;;;4986359;28;20187;-88
2021/06/24 09:12:23;;;;;;;11.52;10.65;;;23.40;73.70;;;;;;4986243;28;20198;-88
2021/06/24 09:14:50;;;;;;;10.52;9.73;;;23.60;72.40;;;;;;5010423;28;20521;-88
2021/06/24 09:17:37;;;;;;;10.80;10.00;;;23.50;71.60;;;;;;5013285;28;20189;-86
2021/06/24 09:20:24;;;;;;;11.05;10.15;;;23.60;71.20;;;;;;4991308;28;20850;-88
2021/06/24 09:23:11;;;;;;;11.27;10.48;;;23.60;70.40;;;;;;5001507;28;20182;-88
2021/06/24 09:25:43;;;;;;;10.13;9.43;;;23.40;70.50;;;;;;5000057;28;20221;-88
2021/06/24 09:28:10;;;;;;;10.50;9.75;;;23.50;71.50;;;;;;5000998;28;20190;-88
2021/06/24 09:30:38;;;;;;;10.93;10.23;;;23.20;71.00;;;;;;5001804;28;20209;-88
2021/06/24 09:33:13;;;;;;;10.70;9.90;;;23.20;72.10;;;;;;5003792;28;20202;-88
2021/06/24 09:35:42;;;;;;;10.55;9.85;;;23.10;73.20;;;;;;5004323;28;20182;-88
2021/06/24 09:38:11;;;;;;;10.65;9.75;;;23.20;73.20;;;;;;4986237;28;20197;-88
2021/06/24 09:40:52;;;;;;;9.70;9.00;;;23.20;72.20;;;;;;5004008;28;20245;-88
2021/06/24 09:43:39;;;;;;;9.82;9.07;;;23.30;73.10;;;;;;5004025;28;20186;-88
2021/06/24 09:46:18;;;;;;;9.90;9.10;;;23.70;70.90;;;;;;5002295;28;20181;-88
2021/06/24 09:48:58;;;;;;;9.65;8.95;;;23.80;69.30;;;;;;5003779;28;20163;-88
2021/06/24 09:51:32;;;;;;;10.18;9.32;;;23.90;68.90;;;;;;5002781;28;20202;-88
2021/06/24 09:54:00;;;;;;;10.57;9.88;;;24.50;68.90;;;;;;5002080;28;20173;-88
2021/06/24 09:56:33;;;;;;;9.93;9.13;;;25.00;67.50;;;;;;5004134;28;20198;-88
2021/06/24 09:59:03;;;;;;;9.90;9.10;;;24.90;66.10;;;;;;5002972;28;20166;-88
2021/06/24 10:01:34;;;;;;;10.13;9.32;;;25.40;64.40;;;;;;4984086;28;20242;-88
2021/06/24 10:04:01;;;;;;;9.80;9.00;;;25.50;63.70;;;;;;4981759;28;20175;-88
2021/06/24 10:06:28;;;;;;;11.07;10.07;;;25.40;63.30;;;;;;4969407;28;20213;-88
2021/06/24 10:08:55;;;;;;;10.15;9.35;;;25.60;61.80;;;;;;4983037;28;20541;-88
2021/06/24 10:11:22;;;;;;;10.15;9.43;;;25.70;61.50;;;;;;5003194;28;20205;-88
2021/06/24 10:13:49;;;;;;;9.45;8.65;;;25.60;60.70;;;;;;5002212;28;20201;-88
2021/06/24 10:16:16;;;;;;;10.10;9.30;;;25.30;62.20;;;;;;5000542;28;20269;-88
2021/06/24 10:18:47;;;;;;;9.98;9.18;;;25.10;64.00;;;;;;4999642;28;20182;-88
2021/06/24 10:21:16;;;;;;;9.80;9.00;;;25.20;64.00;;;;;;4999947;28;20222;-88
2021/06/24 10:23:55;;;;;;;10.30;9.50;;;25.30;63.60;;;;;;5002825;28;20194;-88
2021/06/24 10:26:23;;;;;;;10.30;9.57;;;25.40;60.30;;;;;;5022706;28;20188;-88
2021/06/24 10:29:06;;;;;;;10.45;9.60;;;25.50;64.50;;;;;;5013665;28;20636;-88
2021/06/24 10:31:43;;;;;;;10.02;9.32;;;26.10;62.20;;;;;;5023673;28;20703;-88
2021/06/24 10:34:10;;;;;;;9.90;9.13;;;26.60;58.00;;;;;;5007196;28;20213;-88
2021/06/24 10:36:36;;;;;;;10.35;9.65;;;26.70;57.00;;;;;;5007305;28;20217;-88
2021/06/24 10:39:03;;;;;;;8.95;8.35;;;26.50;59.30;;;;;;5009409;28;20185;-88
2021/06/24 10:42:00;;;;;;;9.32;8.52;;;26.10;58.10;;;;;;5008180;28;20213;-88
2021/06/24 10:44:46;;;;;;;10.27;9.57;;;25.70;60.60;;;;;;5012128;28;20264;-88
2021/06/24 10:47:13;;;;;;;9.98;9.27;;;25.60;62.00;;;;;;5013610;28;20192;-88
2021/06/24 10:49:39;;;;;;;9.60;8.70;;;25.90;62.50;;;;;;4992390;28;20239;-88
2021/06/24 10:52:28;;;;;;;9.55;8.88;;;25.90;58.80;;;;;;5006984;28;20256;-88
2021/06/24 10:54:55;;;;;;;9.93;9.10;;;25.60;59.30;;;;;;5007755;28;20595;-88
2021/06/24 10:57:40;;;;;;;9.02;8.23;;;25.50;59.90;;;;;;5010623;28;20707;-89
2021/06/24 11:00:44;;;;;;;8.50;7.85;;;25.70;59.80;;;;;;4981030;28;20218;-88
2021/06/24 11:03:14;;;;;;;8.38;7.68;;;26.10;57.50;;;;;;5001804;28;20293;-88
2021/06/24 11:05:42;;;;;;;8.98;8.27;;;26.10;58.70;;;;;;5001629;28;20216;-89
2021/06/24 11:08:15;;;;;;;8.60;8.00;;;26.30;57.80;;;;;;5005025;28;20214;-88
2021/06/24 11:11:08;;;;;;;8.40;7.90;;;26.40;57.20;;;;;;4993976;28;20216;-89
2021/06/24 11:13:40;;;;;;;8.02;7.45;;;26.70;55.80;;;;;;5009047;28;20271;-89
2021/06/24 11:16:20;;;;;;;9.10;8.30;;;26.90;56.30;;;;;;5006573;28;20208;-89
2021/06/24 11:18:50;;;;;;;8.05;7.45;;;26.90;56.50;;;;;;5013171;28;20203;-89
2021/06/24 11:21:28;;;;;;;8.05;7.35;;;27.30;55.80;;;;;;5017830;28;20297;-88
2021/06/24 11:24:00;;;;;;;7.80;7.10;;;26.90;55.30;;;;;;5002733;28;20205;-89
2021/06/24 11:26:26;;;;;;;6.70;6.20;;;27.00;56.60;;;;;;5008468;28;20185;-88
2021/06/24 11:28:53;;;;;;;7.32;6.80;;;27.20;54.60;;;;;;5009373;28;20261;-88
2021/06/24 11:31:23;;;;;;;6.90;6.40;;;27.30;54.40;;;;;;5024772;28;20252;-88
2021/06/24 11:36:35;;;;;;;6.43;6.03;;;27.30;55.80;;;;;;5015904;28;20186;-88
2021/06/24 11:39:00;;;;;;;6.65;6.15;;;27.50;51.60;;;;;;5010290;28;20186;-88
2021/06/24 11:41:26;;;;;;;6.35;5.85;;;27.70;51.70;;;;;;5008723;28;20221;-88
2021/06/24 11:44:10;;;;;;;6.10;5.70;;;27.60;51.80;;;;;;5017952;28;20201;-88
2021/06/24 11:46:36;;;;;;;5.82;5.32;;;27.10;53.10;;;;;;5021407;28;20194;-86
2021/06/24 12:05:09;;;;;;;13.23;9.57;;;24.00;75.00;;;;;;5010944;28;20190;-89
2021/06/24 12:07:36;;;;;;;9.52;8.82;;;23.70;79.30;;;;;;5012706;28;20632;-90
2021/06/24 12:10:04;;;;;;;9.43;8.52;;;23.40;77.30;;;;;;5006024;28;20198;-89
2021/06/24 12:12:32;;;;;;;8.98;8.27;;;23.50;80.30;;;;;;5008417;28;20686;-90
2021/06/24 12:15:02;;;;;;;4.75;4.30;;;23.60;79.00;;;;;;5009652;28;20177;-90
2021/06/24 12:17:29;;;;;;;3.67;3.20;;;22.80;71.60;;;;;;4981358;28;20581;-89
2021/06/24 12:19:59;;;;;;;3.30;3.05;;;22.10;75.60;;;;;;4992421;28;20213;-89
2021/06/24 12:22:25;;;;;;;3.40;3.20;;;22.30;78.90;;;;;;5009491;28;20186;-90
2021/06/24 12:24:52;;;;;;;3.05;2.85;;;22.70;80.20;;;;;;5004640;28;20274;-90
2021/06/24 12:27:23;;;;;;;3.28;2.97;;;22.70;75.80;;;;;;4983469;28;20256;-90
2021/06/24 12:29:50;;;;;;;3.45;3.08;;;22.80;75.80;;;;;;4991353;28;20193;-90
2021/06/24 12:32:18;;;;;;;3.53;3.15;;;22.90;76.70;;;;;;5016519;28;20213;-90
2021/06/24 12:34:45;;;;;;;3.22;3.03;;;23.20;77.10;;;;;;5008305;28;20268;-89
2021/06/24 12:37:10;;;;;;;3.88;3.20;;;23.30;74.00;;;;;;5019465;28;20185;-90
2021/06/24 12:39:38;;;;;;;3.30;3.00;;;23.30;74.20;;;;;;5009150;28;20182;-89
2021/06/24 12:42:05;;;;;;;3.50;3.20;;;23.30;74.60;;;;;;5008110;28;20232;-90
2021/06/24 12:44:37;;;;;;;3.50;3.20;;;23.30;73.70;;;;;;4985233;28;20186;-89
2021/06/24 12:47:03;;;;;;;3.13;2.92;;;23.30;70.50;;;;;;5004316;28;20204;-89
2021/06/24 12:49:33;;;;;;;4.00;3.22;;;23.40;71.00;;;;;;4975684;28;20210;-89
2021/06/24 12:51:59;;;;;;;3.55;3.28;;;23.40;69.10;;;;;;5004829;28;20210;-89
2021/06/24 12:54:25;;;;;;;3.72;3.42;;;23.20;68.70;;;;;;5011878;28;20200;-89
2021/06/24 12:56:51;;;;;;;3.28;3.08;;;23.00;74.30;;;;;;5008076;28;20186;-90
2021/06/24 12:59:24;;;;;;;3.15;2.85;;;23.00;75.60;;;;;;5013065;28;20205;-89
2021/06/24 13:01:52;;;;;;;3.55;3.25;;;22.90;69.10;;;;;;4990098;28;20211;-90
2021/06/24 13:04:24;;;;;;;3.88;3.58;;;23.00;74.20;;;;;;5016504;28;20189;-90
2021/06/24 13:06:52;;;;;;;3.38;3.08;;;23.00;78.00;;;;;;5013024;28;20190;-89